Time;durP1;ratioP1;P1;durP2;ratioP2;P2;SDS_P1;SDS_P2;PMS_P1;PMS_P2;Temp;Humidity;BMP_temperature;BMP_pressure;BME280_temperature;BME280_humidity;BME280_pressure;Samples;Min_cycle;Max_cycle;Signal;HPM_P1;HPM_P2
2022/08/13 00:01:23;;;;;;;2.58;1.23;;;;;;;18.42;40.33;95680.03;5023335;28;20702;-82
2022/08/13 00:03:53;;;;;;;1.65;1.33;;;;;;;18.35;40.27;95676.56;5024229;28;20593;-82
2022/08/13 00:09:04;;;;;;;3.58;1.30;;;;;;;18.34;40.63;95672.31;5022026;28;20182;-82
2022/08/13 00:14:29;;;;;;;1.15;1.08;;;;;;;18.29;40.85;95665.00;5021354;28;20856;-82
2022/08/13 00:16:54;;;;;;;1.40;1.30;;;;;;;18.18;41.03;95652.38;5024945;28;20183;-82
2022/08/13 00:19:21;;;;;;;2.63;1.17;;;;;;;18.22;41.22;95652.81;5029541;28;20205;-83
2022/08/13 00:21:47;;;;;;;3.10;1.23;;;;;;;18.14;41.29;95647.72;5021551;28;20237;-83
2022/08/13 00:24:14;;;;;;;1.50;1.40;;;;;;;18.17;41.39;95644.69;5020021;28;20203;-81
2022/08/13 00:26:39;;;;;;;1.92;1.30;;;;;;;18.09;41.49;95643.81;5023990;28;20214;-81
2022/08/13 00:29:04;;;;;;;1.50;1.30;;;;;;;18.08;41.40;95644.03;5022978;28;20237;-83
2022/08/13 00:31:31;;;;;;;3.08;1.02;;;;;;;18.07;41.48;95642.41;5025363;28;20229;-84
2022/08/13 00:33:58;;;;;;;1.20;1.10;;;;;;;17.99;41.36;95642.53;5023321;28;20206;-81
2022/08/13 00:36:23;;;;;;;2.55;0.95;;;;;;;17.96;41.57;95635.06;5021674;28;20180;-83
2022/08/13 00:38:52;;;;;;;1.70;1.20;;;;;;;17.93;41.70;95635.41;5024947;28;20242;-81
2022/08/13 00:44:04;;;;;;;1.80;1.10;;;;;;;17.77;42.02;95631.28;5021494;28;20284;-82
2022/08/13 00:46:30;;;;;;;2.33;1.20;;;;;;;17.66;42.49;95631.72;5022594;28;20206;-82
2022/08/13 00:48:55;;;;;;;1.38;1.27;;;;;;;17.59;42.59;95631.69;5022635;28;20185;-82
2022/08/13 00:51:22;;;;;;;1.42;1.33;;;;;;;17.55;42.85;95639.13;5024454;28;20194;-82
2022/08/13 00:53:48;;;;;;;1.92;1.40;;;;;;;17.44;43.17;95638.81;5019891;28;20211;-82
2022/08/13 00:56:14;;;;;;;2.33;1.50;;;;;;;17.37;43.41;95633.50;5027545;28;20220;-84
2022/08/13 00:58:40;;;;;;;3.22;1.48;;;;;;;17.31;43.54;95631.63;5038332;28;20613;-85
2022/08/13 01:01:06;;;;;;;1.50;1.40;;;;;;;17.27;43.86;95633.00;5032137;28;20214;-85
2022/08/13 01:03:35;;;;;;;1.45;1.15;;;;;;;17.20;43.95;95630.31;5040283;28;20203;-85
2022/08/13 01:06:01;;;;;;;1.25;1.15;;;;;;;17.19;44.16;95630.50;5022549;28;20278;-84
2022/08/13 01:08:31;;;;;;;1.48;1.30;;;;;;;17.18;44.32;95623.63;5026518;28;20545;-83
2022/08/13 01:10:59;;;;;;;2.88;1.20;;;;;;;17.15;44.48;95624.00;5040787;28;20277;-83
2022/08/13 01:13:25;;;;;;;2.80;1.30;;;;;;;17.12;44.63;95627.00;5018505;28;20230;-84
2022/08/13 01:15:51;;;;;;;1.70;1.50;;;;;;;16.99;44.84;95628.47;5033327;28;20184;-85
2022/08/13 01:18:18;;;;;;;1.40;1.30;;;;;;;16.90;44.97;95624.34;5018883;28;20205;-82
2022/08/13 01:21:10;;;;;;;1.23;1.10;;;;;;;16.82;45.36;95623.66;5037811;28;20309;-83
2022/08/13 01:23:37;;;;;;;4.05;1.50;;;;;;;16.77;45.48;95626.00;5019233;28;20738;-84
2022/08/13 01:26:02;;;;;;;1.30;1.20;;;;;;;16.67;45.56;95624.44;5023487;28;20671;-84
2022/08/13 01:28:28;;;;;;;2.58;1.40;;;;;;;16.73;45.94;95630.81;5024279;28;20240;-83
2022/08/13 01:30:56;;;;;;;1.35;1.25;;;;;;;16.73;45.92;95625.56;5023245;28;20194;-83
2022/08/13 01:33:23;;;;;;;1.27;1.20;;;;;;;16.68;45.98;95620.84;5022586;28;20870;-84
2022/08/13 01:35:49;;;;;;;1.58;1.48;;;;;;;16.56;46.43;95630.16;5025298;28;20190;-83
2022/08/13 01:38:15;;;;;;;1.77;1.23;;;;;;;16.51;46.45;95629.06;5021659;28;20183;-83
2022/08/13 01:40:42;;;;;;;2.30;1.30;;;;;;;16.49;46.52;95631.06;5023390;28;20230;-82
2022/08/13 01:43:07;;;;;;;5.18;1.80;;;;;;;16.42;46.69;95633.59;5025335;28;20202;-83
2022/08/13 01:45:34;;;;;;;2.25;1.30;;;;;;;16.38;46.94;95637.59;5029715;28;20572;-84
2022/08/13 01:50:57;;;;;;;2.88;1.30;;;;;;;16.34;47.24;95642.38;5021952;28;20594;-83
2022/08/13 01:53:22;;;;;;;2.33;1.15;;;;;;;16.33;46.90;95642.53;5022477;28;20187;-83
2022/08/13 01:55:54;;;;;;;1.60;1.40;;;;;;;16.32;46.90;95633.88;5022677;28;20175;-83
2022/08/13 01:58:22;;;;;;;2.25;1.30;;;;;;;16.26;47.16;95637.22;5033282;28;20708;-83
2022/08/13 02:00:50;;;;;;;1.60;1.50;;;;;;;16.24;47.40;95631.34;5021980;28;20182;-83
2022/08/13 02:03:17;;;;;;;1.55;1.45;;;;;;;16.19;47.60;95638.13;5020736;28;20183;-83
2022/08/13 02:05:43;;;;;;;1.80;1.65;;;;;;;16.18;47.89;95631.25;5021674;28;20214;-82
2022/08/13 02:08:11;;;;;;;2.63;1.50;;;;;;;16.14;47.81;95633.41;5037543;28;20197;-83
2022/08/13 02:10:39;;;;;;;1.55;1.23;;;;;;;16.14;47.72;95625.53;5019810;28;20598;-83
2022/08/13 02:13:11;;;;;;;4.05;1.48;;;;;;;16.11;48.08;95629.34;5023096;28;20198;-82
2022/08/13 02:15:37;;;;;;;1.60;1.50;;;;;;;16.10;48.03;95627.72;5038551;28;20281;-83
2022/08/13 02:18:04;;;;;;;1.63;1.30;;;;;;;16.21;48.21;95630.88;5022515;28;20274;-82
2022/08/13 02:20:32;;;;;;;1.50;1.23;;;;;;;16.30;48.21;95629.81;5023304;28;20190;-82
2022/08/13 02:22:58;;;;;;;1.50;1.40;;;;;;;16.29;48.49;95636.84;5019876;28;20191;-82
2022/08/13 02:25:28;;;;;;;1.50;1.30;;;;;;;16.36;48.60;95629.09;5021103;28;20218;-82
2022/08/13 02:27:55;;;;;;;1.95;1.73;;;;;;;16.34;48.35;95628.44;5018823;28;20181;-82
2022/08/13 02:30:21;;;;;;;1.80;1.70;;;;;;;16.42;48.58;95633.59;5023540;28;20237;-82
2022/08/13 02:32:47;;;;;;;1.60;1.50;;;;;;;16.43;48.40;95637.84;5021080;28;20183;-83
2022/08/13 02:35:17;;;;;;;2.40;1.40;;;;;;;16.50;48.70;95635.31;5020552;28;20287;-82
2022/08/13 02:37:43;;;;;;;2.30;1.27;;;;;;;16.50;48.50;95641.34;5017877;28;20168;-83
2022/08/13 02:41:38;;;;;;;2.00;1.40;;;;;;;16.48;48.48;95629.44;5020235;28;20205;-82
2022/08/13 02:42:53;;;;;;;1.65;1.55;;;;;;;16.43;48.67;95627.34;5019721;28;20232;-82
2022/08/13 02:45:20;;;;;;;5.95;1.70;;;;;;;16.36;48.81;95626.47;5019838;28;20250;-83
2022/08/13 02:47:46;;;;;;;3.05;1.40;;;;;;;16.32;48.93;95633.88;5021733;28;20189;-82
2022/08/13 02:50:11;;;;;;;2.22;1.40;;;;;;;16.29;49.16;95631.63;5021177;28;20667;-82
2022/08/13 02:52:39;;;;;;;2.63;1.58;;;;;;;16.35;49.09;95630.09;5017964;28;20193;-82
2022/08/13 02:55:06;;;;;;;3.65;1.55;;;;;;;16.19;49.52;95635.50;5031485;28;20203;-82
2022/08/13 02:57:33;;;;;;;5.03;1.50;;;;;;;16.17;49.71;95629.59;5021103;28;20187;-83
2022/08/13 02:59:58;;;;;;;3.47;1.52;;;;;;;16.10;49.99;95626.91;5038160;28;20658;-83
2022/08/13 03:02:24;;;;;;;1.52;1.42;;;;;;;16.15;50.08;95627.16;5020444;28;20197;-83
2022/08/13 03:04:49;;;;;;;1.50;1.40;;;;;;;16.16;49.91;95631.41;5020850;28;20217;-82
2022/08/13 03:07:14;;;;;;;2.22;1.63;;;;;;;16.13;50.11;95629.16;5022511;28;20198;-82
2022/08/13 03:09:39;;;;;;;2.97;1.80;;;;;;;16.05;50.35;95631.88;5018953;28;20248;-82
2022/08/13 03:12:06;;;;;;;3.30;1.65;;;;;;;16.02;50.40;95633.03;5003807;28;20190;-82
2022/08/13 03:14:34;;;;;;;1.90;1.63;;;;;;;16.04;50.54;95633.66;5020375;28;20370;-82
2022/08/13 03:16:59;;;;;;;2.42;1.73;;;;;;;16.00;50.77;95645.50;5018804;28;20175;-82
2022/08/13 03:19:24;;;;;;;1.50;1.40;;;;;;;16.00;50.68;95635.03;5021712;28;20239;-82
2022/08/13 03:21:50;;;;;;;1.90;1.58;;;;;;;15.97;50.97;95630.13;5041362;28;20187;-82
2022/08/13 03:24:17;;;;;;;3.17;1.38;;;;;;;15.94;51.26;95638.34;5021879;28;20564;-83
2022/08/13 03:26:44;;;;;;;2.53;1.40;;;;;;;15.89;51.30;95638.06;5027577;28;20221;-83
2022/08/13 03:29:09;;;;;;;1.70;1.58;;;;;;;16.00;51.33;95640.28;5026508;28;20182;-82
2022/08/13 03:31:35;;;;;;;2.13;1.80;;;;;;;15.86;51.61;95638.44;5022389;28;20187;-82
2022/08/13 03:34:01;;;;;;;4.07;1.75;;;;;;;15.90;51.86;95637.06;5022951;28;20215;-82
2022/08/13 03:36:28;;;;;;;2.83;1.88;;;;;;;15.93;51.48;95641.16;5006524;28;20202;-82
2022/08/13 03:38:53;;;;;;;3.10;1.55;;;;;;;15.96;51.42;95644.22;5041412;28;20186;-82
2022/08/13 03:41:18;;;;;;;3.10;1.58;;;;;;;15.89;51.71;95651.16;5022534;28;20269;-83
2022/08/13 03:43:47;;;;;;;1.70;1.60;;;;;;;15.89;51.87;95653.78;5024796;28;20195;-83
2022/08/13 03:46:14;;;;;;;1.50;1.38;;;;;;;15.89;51.98;95648.53;5023122;28;20741;-84
2022/08/13 03:48:39;;;;;;;1.75;1.65;;;;;;;15.78;52.00;95652.41;5025532;28;20217;-84
2022/08/13 03:51:08;;;;;;;2.10;1.88;;;;;;;15.72;52.23;95647.88;5041352;28;20713;-84
2022/08/13 03:53:35;;;;;;;2.30;1.70;;;;;;;15.68;52.72;95645.78;5035798;28;20600;-84
2022/08/13 03:56:01;;;;;;;1.83;1.45;;;;;;;15.64;52.51;95647.16;5027932;28;20290;-84
2022/08/13 03:58:28;;;;;;;1.88;1.77;;;;;;;15.58;52.43;95638.16;5041755;28;20325;-83
2022/08/13 04:00:54;;;;;;;1.98;1.70;;;;;;;15.57;52.79;95645.19;5027122;28;20205;-84
2022/08/13 04:03:23;;;;;;;1.60;1.50;;;;;;;15.54;53.17;95639.47;5026535;28;20187;-84
2022/08/13 04:05:55;;;;;;;2.17;1.98;;;;;;;15.49;52.94;95632.19;5024559;28;20293;-83
2022/08/13 04:08:20;;;;;;;2.58;1.83;;;;;;;15.44;52.87;95634.50;5025516;28;20196;-83
2022/08/13 04:10:46;;;;;;;4.03;2.22;;;;;;;15.45;52.72;95632.69;5041629;28;20269;-83
2022/08/13 04:13:15;;;;;;;2.53;2.13;;;;;;;15.43;52.97;95627.63;5023285;28;20504;-83
2022/08/13 04:15:42;;;;;;;4.03;1.80;;;;;;;15.40;53.38;95632.41;5025570;28;20202;-83
2022/08/13 04:18:08;;;;;;;3.70;1.60;;;;;;;15.34;53.47;95618.22;5042124;28;20710;-83
2022/08/13 04:20:34;;;;;;;1.73;1.63;;;;;;;15.33;53.70;95624.44;5023668;28;20193;-83
2022/08/13 04:23:00;;;;;;;1.95;1.70;;;;;;;15.38;53.57;95619.50;5024422;28;20705;-82
2022/08/13 04:25:25;;;;;;;4.15;1.80;;;;;;;15.34;53.74;95618.22;5040956;28;20207;-83
2022/08/13 04:27:50;;;;;;;1.60;1.50;;;;;;;15.36;53.62;95621.47;5023405;28;20538;-83
2022/08/13 04:30:20;;;;;;;2.83;1.75;;;;;;;15.41;53.55;95620.97;5024646;28;20190;-85
2022/08/13 04:32:45;;;;;;;2.17;1.52;;;;;;;15.36;53.95;95620.66;5025969;28;20186;-84
2022/08/13 04:35:11;;;;;;;2.38;1.80;;;;;;;15.34;54.42;95628.69;5024027;28;20206;-84
2022/08/13 04:37:37;;;;;;;3.88;1.90;;;;;;;15.36;54.34;95624.09;5025888;28;20183;-85
2022/08/13 04:40:03;;;;;;;3.10;1.70;;;;;;;15.37;54.32;95623.13;5023304;28;20199;-83
2022/08/13 04:42:45;;;;;;;2.20;1.58;;;;;;;15.40;54.21;95628.00;5053007;28;20179;-84
2022/08/13 04:45:12;;;;;;;3.20;2.00;;;;;;;15.41;53.92;95623.56;5047307;28;20221;-84
2022/08/13 04:47:37;;;;;;;3.83;2.08;;;;;;;15.44;53.83;95626.63;5046772;28;20217;-84
2022/08/13 04:50:04;;;;;;;2.90;1.98;;;;;;;15.52;53.91;95631.00;5050971;28;20179;-83
2022/08/13 04:52:29;;;;;;;1.80;1.50;;;;;;;15.55;53.80;95634.09;5049259;28;20167;-84
2022/08/13 04:54:54;;;;;;;2.13;1.83;;;;;;;15.58;53.76;95638.97;5036825;28;20220;-83
2022/08/13 04:57:20;;;;;;;2.97;2.00;;;;;;;15.71;53.30;95634.97;5025797;28;20170;-84
2022/08/13 04:59:45;;;;;;;1.70;1.60;;;;;;;15.80;53.36;95631.28;5026006;28;20183;-83
2022/08/13 05:02:11;;;;;;;3.40;1.77;;;;;;;15.88;53.17;95633.81;5022783;28;20273;-84
2022/08/13 05:04:36;;;;;;;2.38;1.60;;;;;;;15.98;52.64;95636.19;5025507;28;20675;-83
2022/08/13 05:07:01;;;;;;;1.80;1.70;;;;;;;16.53;52.11;95633.16;5019260;28;20199;-83
2022/08/13 05:09:27;;;;;;;1.70;1.60;;;;;;;18.10;47.66;95639.38;5021530;28;20233;-84
2022/08/13 05:11:53;;;;;;;2.72;1.60;;;;;;;18.87;45.02;95633.97;5025607;28;20189;-85
2022/08/13 05:14:18;;;;;;;2.75;1.90;;;;;;;18.91;44.38;95635.22;5024214;28;20300;-83
2022/08/13 05:16:43;;;;;;;2.72;1.60;;;;;;;18.82;44.71;95628.50;5024240;28;20187;-83
2022/08/13 05:19:09;;;;;;;3.47;1.70;;;;;;;18.64;45.40;95630.78;5023141;28;20187;-84
2022/08/13 05:21:34;;;;;;;2.05;1.70;;;;;;;18.54;45.67;95632.97;5022203;28;20202;-83
2022/08/13 05:23:59;;;;;;;2.90;1.52;;;;;;;18.48;45.95;95646.91;5017162;28;20381;-84
2022/08/13 05:26:29;;;;;;;2.40;1.48;;;;;;;18.62;45.69;95644.13;5023311;28;20210;-84
2022/08/13 05:28:56;;;;;;;1.73;1.52;;;;;;;18.42;46.81;95643.22;5022178;28;20187;-84
2022/08/13 05:31:22;;;;;;;1.95;1.45;;;;;;;18.49;46.29;95648.53;5021890;28;20330;-84
2022/08/13 05:33:48;;;;;;;1.98;1.80;;;;;;;18.47;46.62;95655.81;5024951;28;20640;-84
2022/08/13 05:36:13;;;;;;;2.45;1.67;;;;;;;18.51;46.51;95649.16;5026620;28;20192;-84
2022/08/13 05:38:39;;;;;;;3.28;1.60;;;;;;;18.46;46.68;95654.16;5028155;28;20182;-84
2022/08/13 05:41:07;;;;;;;2.03;1.77;;;;;;;18.53;46.65;95650.56;5022028;28;20673;-84
2022/08/13 05:43:35;;;;;;;1.85;1.73;;;;;;;18.63;46.23;95653.66;5025427;28;20183;-84
2022/08/13 05:46:03;;;;;;;2.38;1.83;;;;;;;18.68;46.13;95648.66;5023535;28;20203;-83
2022/08/13 05:48:32;;;;;;;1.60;1.50;;;;;;;18.53;46.47;95647.13;5022202;28;20309;-84
2022/08/13 05:50:59;;;;;;;2.08;1.80;;;;;;;18.50;46.54;95644.91;5020210;28;20722;-83
2022/08/13 05:53:26;;;;;;;2.00;1.90;;;;;;;18.57;46.71;95643.94;5024587;28;20191;-83
2022/08/13 05:55:53;;;;;;;1.80;1.70;;;;;;;18.37;47.15;95643.81;5022981;28;20207;-83
2022/08/13 05:58:20;;;;;;;2.05;1.67;;;;;;;18.45;47.00;95640.22;5040468;28;20688;-82
2022/08/13 06:03:29;;;;;;;2.15;1.70;;;;;;;18.66;46.70;95652.50;5018172;28;20253;-83
2022/08/13 06:05:56;;;;;;;2.17;1.90;;;;;;;18.59;46.73;95654.25;5022786;28;20697;-83
2022/08/13 06:08:30;;;;;;;2.67;1.80;;;;;;;18.66;46.53;95655.94;5016213;28;20190;-84
2022/08/13 06:11:06;;;;;;;3.20;1.88;;;;;;;18.68;46.39;95647.84;5021233;28;20191;-83
2022/08/13 06:13:33;;;;;;;2.03;1.83;;;;;;;18.85;45.72;95646.50;5026896;28;20178;-83
2022/08/13 06:16:00;;;;;;;3.15;1.80;;;;;;;18.89;45.51;95649.56;5026177;28;20229;-84
2022/08/13 06:18:33;;;;;;;2.10;1.90;;;;;;;19.47;44.41;95655.19;5023805;28;20194;-84
2022/08/13 06:21:00;;;;;;;1.90;1.70;;;;;;;20.79;41.83;95655.16;5021944;28;20187;-84
2022/08/13 06:23:28;;;;;;;1.50;1.40;;;;;;;22.42;38.08;95657.19;5020350;28;20183;-84
2022/08/13 06:25:54;;;;;;;3.10;1.85;;;;;;;23.15;36.64;95651.94;5020234;28;20203;-84
2022/08/13 06:28:21;;;;;;;2.55;1.73;;;;;;;22.88;36.62;95656.72;5023776;28;20616;-84
2022/08/13 06:30:49;;;;;;;1.60;1.50;;;;;;;22.45;37.00;95654.91;5023044;28;20191;-84
2022/08/13 06:33:14;;;;;;;1.63;1.52;;;;;;;22.33;37.57;95659.28;5018511;28;20244;-84
2022/08/13 06:35:40;;;;;;;3.53;1.80;;;;;;;21.96;38.39;95653.09;5022401;28;20199;-84
2022/08/13 06:38:06;;;;;;;3.03;1.70;;;;;;;21.69;38.93;95653.28;5023791;28;20205;-85
2022/08/13 06:40:35;;;;;;;2.05;1.73;;;;;;;23.45;35.98;95654.56;5021205;28;20202;-84
2022/08/13 06:43:01;;;;;;;1.98;1.70;;;;;;;26.13;31.30;95665.09;5021318;28;20670;-84
2022/08/13 06:45:26;;;;;;;3.38;1.70;;;;;;;28.18;28.16;95670.00;5020228;28;20199;-83
2022/08/13 06:47:52;;;;;;;1.88;1.77;;;;;;;28.47;27.26;95671.31;5017729;28;20194;-84
2022/08/13 06:50:17;;;;;;;4.35;1.60;;;;;;;28.17;27.69;95676.41;5025887;28;20674;-84
2022/08/13 06:52:43;;;;;;;4.65;1.58;;;;;;;29.45;25.31;95681.44;5034867;28;20171;-84
2022/08/13 06:55:08;;;;;;;1.85;1.50;;;;;;;29.50;25.40;95678.00;5043254;28;20262;-84
2022/08/13 06:57:36;;;;;;;1.75;1.20;;;;;;;28.99;25.82;95683.94;5046529;28;20193;-84
2022/08/13 07:00:04;;;;;;;1.55;1.42;;;;;;;29.68;25.15;95687.41;5037444;28;20206;-83
2022/08/13 07:02:32;;;;;;;1.60;1.33;;;;;;;28.54;26.53;95683.66;5025083;28;20183;-84
2022/08/13 07:04:58;;;;;;;3.13;1.40;;;;;;;27.65;27.73;95691.13;5004549;28;20234;-84
2022/08/13 07:07:24;;;;;;;1.55;1.10;;;;;;;27.96;27.78;95685.31;5022635;28;20245;-84
2022/08/13 07:09:50;;;;;;;1.55;1.45;;;;;;;28.86;26.22;95694.25;5032506;28;20259;-84
2022/08/13 07:12:15;;;;;;;3.38;1.50;;;;;;;27.95;27.75;95692.50;5022095;28;20186;-84
2022/08/13 07:14:42;;;;;;;4.70;1.60;;;;;;;26.27;30.03;95693.81;5019150;28;20207;-83
2022/08/13 07:17:08;;;;;;;2.45;1.40;;;;;;;27.33;28.29;95695.56;5032243;28;20187;-83
2022/08/13 07:19:34;;;;;;;3.42;1.80;;;;;;;27.58;27.89;95695.84;5019852;28;20753;-83
2022/08/13 07:21:59;;;;;;;1.63;1.52;;;;;;;27.50;27.99;95692.84;5022144;28;20190;-83
2022/08/13 07:24:26;;;;;;;2.15;1.40;;;;;;;27.22;28.57;95692.00;5018662;28;20203;-83
2022/08/13 07:26:52;;;;;;;1.70;1.60;;;;;;;26.78;29.00;95691.94;5021996;28;20670;-83
2022/08/13 07:29:19;;;;;;;3.17;1.75;;;;;;;26.44;30.04;95695.69;5019969;28;20201;-83
2022/08/13 07:31:45;;;;;;;2.22;1.65;;;;;;;26.11;30.11;95694.59;5016784;28;20693;-84
2022/08/13 07:34:10;;;;;;;4.47;2.00;;;;;;;25.11;32.50;95693.28;5020561;28;20293;-82
2022/08/13 07:36:37;;;;;;;3.17;1.90;;;;;;;24.40;33.66;95686.41;5037900;28;20191;-84
2022/08/13 07:39:08;;;;;;;3.13;2.30;;;;;;;23.82;34.76;95687.09;5019556;28;20330;-83
2022/08/13 07:41:41;;;;;;;1.80;1.70;;;;;;;22.87;36.68;95687.66;5021495;28;20175;-84
2022/08/13 07:44:09;;;;;;;3.05;1.90;;;;;;;22.57;37.27;95687.56;5008498;28;20202;-84
2022/08/13 07:46:42;;;;;;;1.70;1.60;;;;;;;21.96;39.01;95680.34;5038959;28;20753;-84
2022/08/13 07:49:09;;;;;;;1.90;1.75;;;;;;;22.06;38.57;95683.31;5023522;28;20293;-84
2022/08/13 07:51:37;;;;;;;3.60;1.80;;;;;;;22.02;38.77;95681.31;5023918;28;20183;-84
2022/08/13 07:54:06;;;;;;;2.08;1.77;;;;;;;22.14;39.33;95678.81;5022410;28;20528;-85
2022/08/13 07:56:32;;;;;;;3.72;1.73;;;;;;;22.51;38.21;95671.75;5018061;28;20194;-85
2022/08/13 07:59:07;;;;;;;2.03;1.92;;;;;;;22.61;37.84;95682.63;5008254;28;20187;-83
2022/08/13 08:01:42;;;;;;;3.90;1.70;;;;;;;22.03;38.69;95675.81;5022063;28;20666;-83
2022/08/13 08:04:08;;;;;;;2.50;1.63;;;;;;;22.43;37.80;95685.25;5019984;28;20207;-83
2022/08/13 08:06:34;;;;;;;2.28;2.08;;;;;;;22.29;37.17;95682.75;5026820;28;20267;-83
2022/08/13 08:08:59;;;;;;;4.43;2.47;;;;;;;22.53;38.04;95680.28;5026438;28;20183;-83
2022/08/13 08:14:10;;;;;;;2.20;2.00;;;;;;;22.79;36.93;95676.53;5024252;28;20229;-83
2022/08/13 08:16:36;;;;;;;2.47;1.90;;;;;;;22.93;36.68;95679.88;5022241;28;20183;-83
2022/08/13 08:19:02;;;;;;;3.28;1.75;;;;;;;22.76;37.07;95688.38;5026004;28;20190;-83
2022/08/13 08:21:28;;;;;;;2.42;1.83;;;;;;;22.73;37.16;95690.66;5042211;28;20187;-84
2022/08/13 08:23:59;;;;;;;1.83;1.60;;;;;;;23.08;36.02;95688.28;5023719;28;20276;-83
2022/08/13 08:26:31;;;;;;;3.28;2.00;;;;;;;22.80;37.02;95689.56;5042936;28;20214;-84
2022/08/13 08:28:58;;;;;;;2.85;1.80;;;;;;;23.14;35.87;95682.88;5021518;28;20594;-80
2022/08/13 08:31:25;;;;;;;1.98;1.85;;;;;;;23.30;35.57;95672.69;5027640;28;20178;-80
2022/08/13 08:33:51;;;;;;;2.20;1.80;;;;;;;23.19;35.26;95684.88;5028202;28;20207;-80
2022/08/13 08:36:17;;;;;;;1.92;1.83;;;;;;;22.78;36.14;95685.50;5037113;28;20190;-78
2022/08/13 08:44:33;;;;;;;1.88;1.70;;;;;;;23.26;35.30;95674.19;5016325;28;20261;-76
2022/08/13 08:47:00;;;;;;;6.35;2.08;;;;;;;23.34;34.91;95685.28;5021601;28;20238;-76
2022/08/13 08:49:26;;;;;;;3.55;1.90;;;;;;;23.12;34.89;95679.66;5024795;28;20225;-75
2022/08/13 08:51:53;;;;;;;2.75;1.52;;;;;;;23.34;35.18;95668.59;5021540;28;20285;-76
2022/08/13 08:54:21;;;;;;;3.22;1.60;;;;;;;23.74;34.39;95667.00;5039495;28;20241;-77
2022/08/13 08:56:47;;;;;;;1.70;1.50;;;;;;;23.68;34.09;95675.09;5022576;28;20572;-76
2022/08/13 08:59:13;;;;;;;2.45;1.67;;;;;;;24.06;33.42;95665.94;5023803;28;20179;-79
2022/08/13 09:01:40;;;;;;;1.95;1.85;;;;;;;24.28;32.84;95677.59;5025005;28;20266;-77
2022/08/13 09:04:07;;;;;;;2.05;1.85;;;;;;;24.23;33.11;95674.84;5027320;28;20233;-78
2022/08/13 09:06:32;;;;;;;2.22;1.90;;;;;;;24.34;33.29;95678.56;5043803;28;20631;-78
2022/08/13 09:08:59;;;;;;;3.38;1.60;;;;;;;24.47;32.66;95680.97;5027833;28;20183;-78
2022/08/13 09:11:28;;;;;;;2.58;1.90;;;;;;;24.16;32.74;95682.09;5030436;28;20244;-76
2022/08/13 09:13:53;;;;;;;1.98;1.77;;;;;;;23.87;33.13;95676.63;5043033;28;20620;-78
2022/08/13 09:16:18;;;;;;;2.90;1.80;;;;;;;24.25;32.71;95673.56;5024258;28;20171;-79
2022/08/13 09:18:44;;;;;;;3.25;1.65;;;;;;;24.65;31.84;95682.69;5022105;28;20321;-79
2022/08/13 09:21:09;;;;;;;2.63;1.48;;;;;;;24.71;31.11;95676.47;5024934;28;20276;-78
2022/08/13 09:23:35;;;;;;;3.78;1.83;;;;;;;24.75;31.53;95677.63;5025178;28;20232;-79
2022/08/13 09:26:02;;;;;;;2.10;1.92;;;;;;;24.71;31.80;95663.19;5022971;28;20191;-80
2022/08/13 09:28:27;;;;;;;3.97;1.63;;;;;;;24.76;31.48;95668.63;5025850;28;20189;-80
2022/08/13 09:30:54;;;;;;;4.30;1.58;;;;;;;24.35;32.13;95670.34;5030914;28;20265;-79
2022/08/13 09:33:22;;;;;;;1.58;1.48;;;;;;;24.28;32.36;95667.78;5029438;28;20349;-79
2022/08/13 09:35:49;;;;;;;4.28;1.80;;;;;;;24.56;32.01;95664.47;5023568;28;20172;-80
2022/08/13 09:38:15;;;;;;;2.08;1.67;;;;;;;24.95;31.29;95659.44;5005590;28;20210;-80
2022/08/13 09:40:58;;;;;;;1.80;1.70;;;;;;;25.11;30.88;95666.72;5026130;28;20245;-79
2022/08/13 09:43:30;;;;;;;2.65;1.55;;;;;;;25.42;30.37;95664.63;5022712;28;20183;-79
2022/08/13 09:45:56;;;;;;;1.88;1.75;;;;;;;25.43;30.07;95658.28;5038877;28;20337;-79
2022/08/13 09:48:22;;;;;;;2.70;1.85;;;;;;;25.53;30.37;95657.66;5023687;28;20223;-79
2022/08/13 09:50:47;;;;;;;2.63;1.85;;;;;;;24.97;30.95;95665.31;5023111;28;20207;-80
2022/08/13 09:53:12;;;;;;;2.08;1.45;;;;;;;24.63;31.40;95656.38;5026037;28;20174;-80
2022/08/13 09:55:39;;;;;;;3.13;1.73;;;;;;;24.53;31.77;95659.63;5024268;28;20205;-79
2022/08/13 09:58:05;;;;;;;4.25;2.47;;;;;;;24.02;31.28;95668.22;5023616;28;20190;-79
2022/08/13 10:00:33;;;;;;;3.72;1.58;;;;;;;24.14;31.54;95663.75;5022095;28;20179;-79
2022/08/13 10:03:00;;;;;;;2.90;1.60;;;;;;;24.41;31.40;95658.81;5023597;28;20180;-80
2022/08/13 10:05:32;;;;;;;4.13;1.63;;;;;;;24.78;31.16;95667.34;5025125;28;20206;-78
2022/08/13 10:07:57;;;;;;;1.95;1.85;;;;;;;24.64;31.30;95667.81;5021878;28;20225;-78
2022/08/13 10:10:23;;;;;;;3.38;1.77;;;;;;;24.63;30.85;95671.50;5024304;28;20179;-80
2022/08/13 10:12:49;;;;;;;3.58;1.70;;;;;;;24.88;29.82;95666.72;5024582;28;20240;-81
2022/08/13 10:15:14;;;;;;;7.28;1.73;;;;;;;25.18;30.76;95661.28;5022016;28;20241;-80
2022/08/13 10:17:49;;;;;;;3.00;1.98;;;;;;;25.58;29.44;95660.41;5038818;28;20189;-79
2022/08/13 10:20:21;;;;;;;4.25;2.10;;;;;;;25.72;29.55;95653.78;5019790;28;20186;-80
2022/08/13 10:22:47;;;;;;;2.20;2.00;;;;;;;25.79;29.28;95662.41;5023994;28;20577;-79
2022/08/13 10:25:13;;;;;;;2.97;2.10;;;;;;;25.66;29.46;95663.50;5021179;28;20257;-79
2022/08/13 10:27:38;;;;;;;2.70;2.00;;;;;;;25.64;29.13;95660.28;5038247;28;20187;-79
2022/08/13 10:30:05;;;;;;;3.53;1.90;;;;;;;25.73;28.60;95650.09;5024734;28;20248;-81
2022/08/13 10:32:30;;;;;;;2.25;1.98;;;;;;;25.68;28.38;95664.06;5022786;28;20532;-81
2022/08/13 10:34:55;;;;;;;4.13;2.25;;;;;;;25.27;28.51;95648.41;5037307;28;20222;-81
2022/08/13 10:37:21;;;;;;;5.35;1.80;;;;;;;25.35;28.95;95648.81;5023208;28;20217;-81
2022/08/13 10:39:47;;;;;;;2.20;2.00;;;;;;;25.89;28.66;95651.16;5020446;28;20191;-82
2022/08/13 10:42:12;;;;;;;4.85;2.20;;;;;;;26.28;27.70;95649.34;5021234;28;20179;-82
2022/08/13 10:44:38;;;;;;;5.30;1.95;;;;;;;26.37;27.60;95641.75;5005710;28;20264;-82
2022/08/13 10:47:04;;;;;;;2.25;2.05;;;;;;;26.28;27.51;95633.38;5021179;28;20253;-82
2022/08/13 10:49:31;;;;;;;4.55;1.85;;;;;;;25.73;25.66;95658.06;5022467;28;20194;-81
2022/08/13 10:51:57;;;;;;;2.70;1.80;;;;;;;25.47;26.92;95643.47;5022509;28;20265;-81
2022/08/13 10:54:25;;;;;;;1.80;1.70;;;;;;;25.58;27.40;95637.28;5036210;28;20231;-81
2022/08/13 10:56:50;;;;;;;2.22;2.03;;;;;;;25.71;27.69;95646.84;5023217;28;20189;-81
2022/08/13 10:59:15;;;;;;;3.55;2.05;;;;;;;25.80;27.26;95641.94;5022983;28;20186;-81
2022/08/13 11:01:41;;;;;;;3.35;2.00;;;;;;;25.88;26.60;95647.66;5021855;28;20186;-82
2022/08/13 11:04:06;;;;;;;2.88;1.70;;;;;;;26.25;26.35;95650.66;5022360;28;20198;-83
2022/08/13 11:06:33;;;;;;;3.40;1.50;;;;;;;26.12;26.13;95637.66;5024337;28;20193;-82
2022/08/13 11:08:59;;;;;;;4.35;1.40;;;;;;;26.22;26.17;95635.16;5019556;28;20206;-82
2022/08/13 11:11:25;;;;;;;2.28;1.70;;;;;;;26.24;26.70;95638.41;5020973;28;20187;-81
2022/08/13 11:13:50;;;;;;;3.40;1.88;;;;;;;26.18;25.46;95638.56;5023444;28;20211;-83
2022/08/13 11:19:01;;;;;;;3.00;1.40;;;;;;;26.11;26.17;95632.59;5056802;28;20201;-82
2022/08/13 11:21:27;;;;;;;3.22;1.67;;;;;;;26.20;25.78;95647.09;5060664;28;20194;-82
2022/08/13 11:23:53;;;;;;;1.65;1.27;;;;;;;26.49;25.23;95640.63;5061779;28;20218;-83
2022/08/13 11:26:19;;;;;;;1.50;1.40;;;;;;;26.08;25.19;95638.41;5034853;28;20700;-82
2022/08/13 11:28:45;;;;;;;1.83;1.73;;;;;;;26.05;25.51;95639.69;5022520;28;20183;-82
2022/08/13 11:31:10;;;;;;;2.53;1.25;;;;;;;26.07;25.15;95640.25;5023365;28;20594;-81
2022/08/13 11:33:36;;;;;;;2.13;1.23;;;;;;;25.72;25.78;95640.50;5025858;28;20195;-81
2022/08/13 11:36:01;;;;;;;2.40;1.40;;;;;;;25.31;26.17;95644.22;5020535;28;20599;-81
2022/08/13 11:38:26;;;;;;;2.08;1.60;;;;;;;25.42;27.02;95638.84;5022817;28;20183;-82
2022/08/13 11:40:57;;;;;;;3.30;1.88;;;;;;;25.56;27.09;95634.06;5021959;28;20197;-81
2022/08/13 11:43:29;;;;;;;2.22;1.65;;;;;;;25.83;27.10;95642.25;5020664;28;20241;-81
2022/08/13 11:45:56;;;;;;;1.40;1.30;;;;;;;26.03;26.50;95628.47;4991103;28;20256;-81
2022/08/13 11:48:22;;;;;;;2.58;1.52;;;;;;;25.97;26.28;95648.91;5009297;28;20238;-80
2022/08/13 11:50:47;;;;;;;1.90;1.77;;;;;;;26.33;25.11;95641.47;5011372;28;20225;-80
2022/08/13 11:53:13;;;;;;;2.78;1.23;;;;;;;26.55;24.00;95636.19;5029299;28;20204;-80
2022/08/13 11:55:38;;;;;;;2.55;1.65;;;;;;;26.17;24.80;95643.09;5024356;28;20207;-81
2022/08/13 11:58:06;;;;;;;1.48;1.38;;;;;;;26.38;25.83;95630.09;5026904;28;20821;-80